Time;durP1;ratioP1;P1;durP2;ratioP2;P2;SDS_P1;SDS_P2;PMS_P1;PMS_P2;Temp;Humidity;BMP_temperature;BMP_pressure;BME280_temperature;BME280_humidity;BME280_pressure;Samples;Min_cycle;Max_cycle;Signal;HPM_P1;HPM_P2
2023/09/21 00:01:12;;;;;;;7.93;2.97;;;;;;;19.83;100.00;99272.13;5067965;28;20251;-63
2023/09/21 00:03:40;;;;;;;6.50;3.10;;;;;;;19.74;100.00;99273.13;5068987;28;20236;-64
2023/09/21 00:06:07;;;;;;;4.70;2.87;;;;;;;19.70;100.00;99275.25;5068919;28;20727;-64
2023/09/21 00:08:34;;;;;;;7.07;2.90;;;;;;;19.72;100.00;99270.69;5068078;28;20265;-64
2023/09/21 00:11:03;;;;;;;4.40;2.93;;;;;;;19.70;100.00;99267.47;5068372;28;20234;-64
2023/09/21 00:13:31;;;;;;;6.50;3.13;;;;;;;19.68;100.00;99272.81;5068954;28;20200;-64
2023/09/21 00:16:00;;;;;;;7.17;2.90;;;;;;;19.67;100.00;99268.59;5067950;28;20210;-64
2023/09/21 00:18:29;;;;;;;4.77;3.07;;;;;;;19.65;100.00;99264.56;5068260;28;20296;-64
2023/09/21 00:20:57;;;;;;;7.33;2.97;;;;;;;19.64;100.00;99266.31;5068436;28;20305;-64
2023/09/21 00:23:25;;;;;;;5.27;2.83;;;;;;;19.65;100.00;99260.16;5068096;28;20210;-64
2023/09/21 00:25:54;;;;;;;5.67;3.00;;;;;;;19.60;100.00;99259.81;5067906;28;20215;-64
2023/09/21 00:28:22;;;;;;;6.23;3.10;;;;;;;19.51;100.00;99262.59;5068481;28;20753;-64
2023/09/21 00:30:49;;;;;;;4.90;3.17;;;;;;;19.45;100.00;99264.84;5068049;28;20205;-64
2023/09/21 00:33:18;;;;;;;6.13;3.00;;;;;;;19.43;100.00;99259.06;5067338;28;20250;-63
2023/09/21 00:35:44;;;;;;;4.47;2.60;;;;;;;19.41;100.00;99255.81;5068314;28;20234;-63
2023/09/21 00:38:14;;;;;;;4.67;3.00;;;;;;;19.46;100.00;99255.31;5068101;28;20198;-64
2023/09/21 00:40:42;;;;;;;4.03;3.07;;;;;;;19.45;100.00;99254.50;5067402;28;20209;-64
2023/09/21 00:43:10;;;;;;;5.03;3.00;;;;;;;19.45;100.00;99251.09;5066805;28;20574;-64
2023/09/21 00:45:38;;;;;;;6.43;2.93;;;;;;;19.38;100.00;99257.91;5068006;28;20585;-64
2023/09/21 00:48:09;;;;;;;8.93;3.10;;;;;;;19.31;100.00;99262.13;5067509;28;20197;-64
2023/09/21 00:50:37;;;;;;;4.63;3.13;;;;;;;19.29;100.00;99259.69;5067680;28;20203;-64
2023/09/21 00:53:05;;;;;;;6.90;3.70;;;;;;;19.20;100.00;99251.13;5067761;28;20523;-64
2023/09/21 00:55:39;;;;;;;7.73;3.57;;;;;;;19.19;100.00;99252.06;5067958;28;20305;-64
2023/09/21 00:58:07;;;;;;;6.77;3.90;;;;;;;19.25;100.00;99253.19;5067752;28;20210;-64
2023/09/21 01:00:36;;;;;;;6.30;3.97;;;;;;;19.26;100.00;99249.66;5067840;28;20762;-64
2023/09/21 01:03:11;;;;;;;7.10;3.90;;;;;;;19.20;100.00;99250.31;5067488;28;20230;-63
2023/09/21 01:05:40;;;;;;;6.40;3.90;;;;;;;19.15;100.00;99243.00;5067479;28;20195;-64
2023/09/21 01:08:10;;;;;;;10.80;4.23;;;;;;;19.13;100.00;99250.13;5067325;28;20200;-64
2023/09/21 01:10:39;;;;;;;8.83;4.03;;;;;;;19.00;100.00;99242.84;5068320;28;20204;-64
2023/09/21 01:13:07;;;;;;;9.60;4.47;;;;;;;18.96;100.00;99243.31;5067000;28;20276;-64
2023/09/21 01:15:34;;;;;;;9.83;4.63;;;;;;;18.99;100.00;99240.41;5067627;28;20657;-64
2023/09/21 01:18:06;;;;;;;10.27;4.70;;;;;;;19.04;100.00;99240.72;5067878;28;20206;-63
2023/09/21 01:20:33;;;;;;;9.43;4.40;;;;;;;19.06;100.00;99243.19;5067339;28;20260;-64
2023/09/21 01:23:10;;;;;;;6.33;3.87;;;;;;;18.99;100.00;99240.41;5067166;28;20554;-64
2023/09/21 01:25:40;;;;;;;7.37;4.03;;;;;;;18.96;100.00;99243.31;5067850;28;20207;-64
2023/09/21 01:28:08;;;;;;;9.57;4.60;;;;;;;18.87;100.00;99239.91;5067503;28;20202;-64
2023/09/21 01:30:35;;;;;;;8.67;4.63;;;;;;;18.84;100.00;99239.44;5067164;28;20394;-64
2023/09/21 01:33:04;;;;;;;8.87;4.10;;;;;;;18.86;100.00;99237.50;5067542;28;20763;-64
2023/09/21 01:35:34;;;;;;;6.97;4.60;;;;;;;18.92;100.00;99235.06;5067400;28;20210;-64
2023/09/21 01:38:00;;;;;;;7.77;4.40;;;;;;;18.91;100.00;99235.25;5066913;28;20839;-64
2023/09/21 01:40:27;;;;;;;6.97;4.20;;;;;;;18.80;100.00;99232.94;5067599;28;20703;-64
2023/09/21 01:42:58;;;;;;;7.47;4.40;;;;;;;18.69;100.00;99237.44;5067625;28;20227;-64
2023/09/21 01:45:26;;;;;;;9.07;4.47;;;;;;;18.70;100.00;99236.47;5066720;28;20287;-64
2023/09/21 01:47:53;;;;;;;8.90;4.33;;;;;;;18.66;100.00;99227.38;5067611;28;20655;-64
2023/09/21 01:50:21;;;;;;;8.67;4.70;;;;;;;18.74;100.00;99230.03;5067567;28;20207;-64
2023/09/21 01:52:48;;;;;;;7.70;4.63;;;;;;;18.78;100.00;99230.50;5066496;28;20769;-64
2023/09/21 01:55:16;;;;;;;12.43;4.37;;;;;;;18.66;100.00;99224.78;5069649;28;20297;-64
2023/09/21 01:57:45;;;;;;;14.17;4.63;;;;;;;18.57;100.00;99223.16;5071530;28;20203;-64
2023/09/21 02:00:19;;;;;;;9.60;4.67;;;;;;;18.52;100.00;99225.41;5070694;28;20704;-64
2023/09/21 02:02:46;;;;;;;9.70;5.00;;;;;;;18.50;100.00;99227.34;5070361;28;20241;-64
2023/09/21 02:05:12;;;;;;;7.73;4.50;;;;;;;18.57;100.00;99238.69;5071050;28;20679;-64
2023/09/21 02:07:40;;;;;;;6.40;4.50;;;;;;;18.50;100.00;99228.19;5071011;28;20835;-64
2023/09/21 02:10:09;;;;;;;10.30;4.57;;;;;;;18.48;100.00;99226.72;5070356;28;20198;-64
2023/09/21 02:12:37;;;;;;;11.27;5.30;;;;;;;18.41;100.00;99230.88;5070885;28;20238;-64
2023/09/21 02:15:06;;;;;;;14.83;4.97;;;;;;;18.38;100.00;99228.59;5070926;28;20284;-64
2023/09/21 02:17:34;;;;;;;8.57;4.87;;;;;;;18.33;100.00;99226.50;5070247;28;20205;-64
2023/09/21 02:20:01;;;;;;;13.60;4.73;;;;;;;18.31;100.00;99225.84;5070724;28;20698;-64
2023/09/21 02:22:28;;;;;;;8.87;4.97;;;;;;;18.28;100.00;99219.19;5070732;28;20202;-64
2023/09/21 02:24:56;;;;;;;11.63;4.80;;;;;;;18.28;100.00;99224.38;5070366;28;20718;-63
2023/09/21 02:27:22;;;;;;;10.97;4.57;;;;;;;18.27;100.00;99222.75;5070624;28;20213;-64
2023/09/21 02:29:49;;;;;;;10.57;5.00;;;;;;;18.27;100.00;99227.13;5070665;28;20206;-64
2023/09/21 02:32:17;;;;;;;11.00;4.57;;;;;;;18.27;100.00;99217.59;5070165;28;20242;-64
2023/09/21 02:34:46;;;;;;;10.17;5.23;;;;;;;18.29;100.00;99220.00;5070611;28;20253;-64
2023/09/21 02:37:12;;;;;;;9.27;4.70;;;;;;;18.28;100.00;99218.41;5070532;28;20415;-64
2023/09/21 02:39:39;;;;;;;9.23;4.73;;;;;;;18.31;100.00;99224.06;5070674;28;20205;-64
2023/09/21 02:42:08;;;;;;;8.47;4.23;;;;;;;18.32;100.00;99225.69;5069943;28;20213;-63
2023/09/21 02:44:35;;;;;;;6.83;4.03;;;;;;;18.35;100.00;99228.91;5070335;28;20704;-64
2023/09/21 02:47:02;;;;;;;9.13;4.70;;;;;;;18.33;100.00;99224.72;5070664;28;20199;-64
2023/09/21 02:49:30;;;;;;;15.40;4.80;;;;;;;18.30;100.00;99211.28;5069741;28;20672;-64
2023/09/21 02:51:58;;;;;;;12.13;4.50;;;;;;;18.31;100.00;99221.47;5069930;28;20711;-64
2023/09/21 02:54:27;;;;;;;6.30;4.13;;;;;;;18.33;100.00;99222.13;5070203;28;20668;-64
2023/09/21 02:56:54;;;;;;;7.73;4.70;;;;;;;18.31;100.00;99224.06;5069517;28;20452;-64
2023/09/21 02:59:22;;;;;;;13.33;4.77;;;;;;;18.26;100.00;99215.16;5069940;28;20267;-64
2023/09/21 03:01:50;;;;;;;13.27;5.10;;;;;;;18.27;100.00;99221.97;5070285;28;20225;-64
2023/09/21 03:04:17;;;;;;;8.30;4.57;;;;;;;18.20;100.00;99223.53;5069678;28;20415;-64
2023/09/21 03:06:43;;;;;;;9.93;5.20;;;;;;;18.19;100.00;99225.31;5068274;28;20612;-64
2023/09/21 03:09:12;;;;;;;10.10;4.70;;;;;;;18.21;100.00;99227.75;5068560;28;20206;-64
2023/09/21 03:11:39;;;;;;;13.60;4.70;;;;;;;18.19;100.00;99225.31;5069869;28;20582;-64
2023/09/21 03:14:06;;;;;;;7.67;3.50;;;;;;;18.21;100.00;99220.81;5070097;28;20237;-64
2023/09/21 03:16:33;;;;;;;9.03;3.70;;;;;;;18.23;100.00;99226.63;5069908;28;20264;-65
2023/09/21 03:19:00;;;;;;;8.57;3.23;;;;;;;18.24;100.00;99217.09;5069315;28;20201;-64
2023/09/21 03:21:27;;;;;;;6.40;3.70;;;;;;;18.27;100.00;99212.41;5070004;28;20598;-64
2023/09/21 03:23:54;;;;;;;5.77;3.37;;;;;;;18.32;100.00;99215.34;5069273;28;20209;-64
2023/09/21 03:26:22;;;;;;;6.23;3.33;;;;;;;18.31;100.00;99218.88;5068984;28;20217;-64
2023/09/21 03:28:49;;;;;;;6.47;3.30;;;;;;;18.28;100.00;99214.03;5069813;28;20204;-64
2023/09/21 03:31:18;;;;;;;4.80;2.97;;;;;;;18.29;100.00;99217.41;5069475;28;20202;-64
2023/09/21 03:33:46;;;;;;;9.10;3.50;;;;;;;18.38;100.00;99223.44;5068597;28;20229;-64
2023/09/21 03:36:14;;;;;;;5.17;3.33;;;;;;;18.41;100.00;99213.56;5069056;28;20232;-64
2023/09/21 03:38:41;;;;;;;4.97;3.10;;;;;;;18.48;100.00;99213.75;5069429;28;20194;-64
2023/09/21 03:41:07;;;;;;;6.00;3.47;;;;;;;18.46;100.00;99215.69;5068613;28;20202;-64
2023/09/21 03:43:36;;;;;;;6.03;3.43;;;;;;;18.45;100.00;99214.09;5068919;28;20202;-64
2023/09/21 03:46:03;;;;;;;5.57;2.80;;;;;;;18.41;100.00;99203.22;5069548;28;20201;-64
2023/09/21 03:48:35;;;;;;;8.37;3.83;;;;;;;18.36;100.00;99204.69;5068798;28;20612;-64
2023/09/21 03:51:04;;;;;;;6.90;3.40;;;;;;;18.28;100.00;99208.84;5068674;28;20198;-64
2023/09/21 03:53:33;;;;;;;4.80;3.17;;;;;;;18.24;100.00;99212.72;5069520;28;20258;-64
2023/09/21 03:56:01;;;;;;;5.07;3.13;;;;;;;18.33;100.00;99211.78;5068528;28;20211;-63
2023/09/21 03:58:28;;;;;;;7.40;3.73;;;;;;;18.38;100.00;99213.06;5068328;28;20213;-64
2023/09/21 04:01:04;;;;;;;5.83;3.23;;;;;;;18.29;100.00;99215.63;5069193;28;20230;-64
2023/09/21 04:03:31;;;;;;;7.37;3.50;;;;;;;18.26;100.00;99215.94;5069065;28;20234;-64
2023/09/21 04:06:02;;;;;;;8.70;3.53;;;;;;;18.28;100.00;99216.63;5068462;28;20208;-64
2023/09/21 04:08:29;;;;;;;5.97;3.43;;;;;;;18.28;100.00;99216.63;5068735;28;20240;-64
2023/09/21 04:10:59;;;;;;;6.73;3.60;;;;;;;18.22;100.00;99219.84;5069082;28;20201;-64
2023/09/21 04:13:26;;;;;;;9.83;4.03;;;;;;;18.15;100.00;99218.84;5068388;28;20696;-64
2023/09/21 04:15:53;;;;;;;7.30;3.80;;;;;;;18.15;100.00;99218.00;5068191;28;20208;-64
2023/09/21 04:18:21;;;;;;;8.17;3.60;;;;;;;18.03;100.00;99220.06;5068582;28;20675;-64
2023/09/21 04:20:48;;;;;;;6.50;3.80;;;;;;;18.05;100.00;99212.97;5068100;28;20198;-64
2023/09/21 04:23:15;;;;;;;8.40;3.83;;;;;;;18.08;100.00;99217.84;5067864;28;20205;-64
2023/09/21 04:25:47;;;;;;;10.13;3.47;;;;;;;18.08;100.00;99220.41;5068492;28;20205;-64
2023/09/21 04:28:14;;;;;;;7.07;3.90;;;;;;;18.08;100.00;99212.66;5068640;28;20702;-64
2023/09/21 04:30:41;;;;;;;5.57;3.60;;;;;;;18.00;100.00;99223.78;5067640;28;20239;-64
2023/09/21 04:33:08;;;;;;;10.63;4.13;;;;;;;18.07;100.00;99213.63;5068109;28;20229;-64
2023/09/21 04:35:37;;;;;;;11.03;4.47;;;;;;;18.15;100.00;99221.44;5068267;28;20709;-64
2023/09/21 04:38:04;;;;;;;7.83;4.13;;;;;;;18.09;100.00;99220.28;5067732;28;20661;-64
2023/09/21 04:40:31;;;;;;;7.93;3.97;;;;;;;18.09;100.00;99214.28;5068684;28;20221;-64
2023/09/21 04:42:58;;;;;;;7.97;4.60;;;;;;;17.99;100.00;99219.56;5068400;28;20207;-64
2023/09/21 04:45:26;;;;;;;11.17;4.70;;;;;;;18.09;100.00;99214.28;5067721;28;20205;-64
2023/09/21 04:48:00;;;;;;;9.63;4.43;;;;;;;18.14;100.00;99222.38;5067692;28;20218;-64
2023/09/21 04:50:27;;;;;;;6.97;4.63;;;;;;;18.18;100.00;99212.53;5068778;28;20197;-64
2023/09/21 04:52:55;;;;;;;11.33;5.30;;;;;;;18.21;100.00;99213.03;5067699;28;20235;-63
2023/09/21 04:55:22;;;;;;;8.40;4.40;;;;;;;18.28;100.00;99214.03;5067145;28;20284;-64
2023/09/21 04:57:49;;;;;;;10.77;4.53;;;;;;;18.30;100.00;99216.47;5068370;28;20603;-64
2023/09/21 05:00:16;;;;;;;12.20;4.73;;;;;;;18.36;100.00;99215.84;5067993;28;20218;-64
2023/09/21 05:02:44;;;;;;;7.67;4.30;;;;;;;18.44;100.00;99217.63;5067361;28;20199;-64
2023/09/21 05:05:10;;;;;;;8.13;4.37;;;;;;;18.58;100.00;99224.78;5068007;28;20669;-64
2023/09/21 05:07:37;;;;;;;10.03;4.27;;;;;;;18.67;100.00;99223.00;5068102;28;20555;-64
2023/09/21 05:10:07;;;;;;;13.07;4.40;;;;;;;18.84;100.00;99213.53;5067393;28;20200;-64
2023/09/21 05:12:34;;;;;;;8.30;4.20;;;;;;;19.00;100.00;99216.13;5067607;28;20234;-64
2023/09/21 05:15:06;;;;;;;7.90;4.37;;;;;;;19.23;100.00;99219.69;5067741;28;20585;-64
2023/09/21 05:17:33;;;;;;;8.93;4.03;;;;;;;19.34;100.00;99226.28;5067424;28;20223;-64
2023/09/21 05:19:59;;;;;;;8.97;4.47;;;;;;;19.57;100.00;99228.22;5067130;28;20199;-64
2023/09/21 05:22:26;;;;;;;7.50;3.93;;;;;;;19.80;100.00;99233.56;5068122;28;20220;-63
2023/09/21 05:24:53;;;;;;;7.73;3.97;;;;;;;19.88;100.00;99234.34;5067301;28;20218;-63
2023/09/21 05:27:21;;;;;;;10.20;4.27;;;;;;;20.09;100.00;99241.56;5066889;28;20209;-64
2023/09/21 05:29:48;;;;;;;9.07;3.97;;;;;;;20.34;100.00;99244.06;5070369;28;20206;-63
2023/09/21 05:32:15;;;;;;;5.50;3.90;;;;;;;20.56;100.00;99243.31;5072195;28;20534;-63
2023/09/21 05:34:42;;;;;;;6.63;4.10;;;;;;;20.76;100.00;99246.28;5070601;28;20212;-63
2023/09/21 05:37:08;;;;;;;5.47;3.27;;;;;;;20.94;100.00;99250.38;5070428;28;20220;-64
2023/09/21 05:39:35;;;;;;;5.40;3.53;;;;;;;20.98;100.00;99249.88;5070242;28;20714;-63
2023/09/21 05:42:04;;;;;;;4.00;3.20;;;;;;;21.19;98.51;99248.41;5071100;28;20234;-63
2023/09/21 05:44:32;;;;;;;6.43;3.23;;;;;;;21.43;100.00;99245.63;5071717;28;20636;-63
2023/09/21 05:46:59;;;;;;;9.30;3.47;;;;;;;21.64;99.66;99246.72;5071539;28;20205;-63
2023/09/21 05:49:27;;;;;;;6.77;3.30;;;;;;;21.79;96.89;99250.16;5070654;28;20205;-63
2023/09/21 05:51:56;;;;;;;5.93;3.20;;;;;;;21.99;99.25;99249.59;5071468;28;20207;-66
2023/09/21 05:54:23;;;;;;;6.40;3.30;;;;;;;22.18;96.52;99249.09;5071328;28;20227;-63
2023/09/21 05:56:51;;;;;;;6.93;3.83;;;;;;;22.37;95.04;99251.13;5070543;28;20205;-63
2023/09/21 05:59:18;;;;;;;4.63;3.42;;;;;;;22.65;91.65;99254.81;5071189;28;20217;-63
2023/09/21 06:01:48;;;;;;;6.80;3.38;;;;;;;22.79;90.52;99257.38;5071635;28;20198;-63
2023/09/21 06:04:16;;;;;;;7.82;3.90;;;;;;;22.90;91.88;99255.28;5071139;28;20260;-64
2023/09/21 06:06:43;;;;;;;10.98;3.90;;;;;;;23.05;92.33;99256.03;5071604;28;20203;-63
2023/09/21 06:09:12;;;;;;;8.43;4.40;;;;;;;23.32;95.15;99251.03;5070985;28;20199;-63
2023/09/21 06:11:39;;;;;;;11.27;4.65;;;;;;;23.57;95.09;99249.63;5071105;28;20284;-63
2023/09/21 06:14:05;;;;;;;8.38;5.00;;;;;;;23.75;92.26;99258.81;5070728;28;20238;-64
2023/09/21 06:16:33;;;;;;;7.05;4.63;;;;;;;23.83;92.75;99254.22;5071142;28;20219;-63
2023/09/21 06:19:02;;;;;;;9.23;4.88;;;;;;;23.83;90.94;99259.44;5070888;28;20234;-64
2023/09/21 06:21:30;;;;;;;7.65;4.63;;;;;;;23.93;89.82;99264.31;5071308;28;20222;-63
2023/09/21 06:23:57;;;;;;;10.07;4.72;;;;;;;23.99;89.52;99263.53;5070707;28;20195;-63
2023/09/21 06:26:24;;;;;;;11.43;4.85;;;;;;;23.99;88.21;99267.97;5070686;28;20202;-63
2023/09/21 06:28:51;;;;;;;10.55;5.20;;;;;;;24.01;89.23;99277.22;5070629;28;20684;-63
2023/09/21 06:31:21;;;;;;;7.88;4.88;;;;;;;24.02;91.44;99273.59;5070855;28;20199;-64
2023/09/21 06:33:48;;;;;;;8.13;5.35;;;;;;;23.94;89.06;99276.41;5070594;28;20599;-64
2023/09/21 06:36:18;;;;;;;11.05;5.40;;;;;;;23.79;89.02;99273.06;5070528;28;20199;-64
2023/09/21 06:38:45;;;;;;;8.10;5.25;;;;;;;23.66;89.41;99274.56;5070661;28;20755;-64
2023/09/21 06:41:12;;;;;;;8.80;5.18;;;;;;;23.47;88.57;99272.63;5070737;28;20209;-64
2023/09/21 06:43:42;;;;;;;8.57;5.45;;;;;;;23.46;91.54;99263.19;5070882;28;20199;-64
2023/09/21 06:46:09;;;;;;;11.38;5.30;;;;;;;23.36;90.56;99262.69;5070387;28;20727;-64
2023/09/21 06:48:35;;;;;;;9.20;5.78;;;;;;;23.25;92.15;99258.81;5070267;28;20194;-64
2023/09/21 06:51:04;;;;;;;7.25;4.70;;;;;;;23.22;92.64;99265.22;5070457;28;20194;-64
2023/09/21 06:53:32;;;;;;;10.30;5.18;;;;;;;23.23;92.76;99261.59;5070428;28;20234;-64
2023/09/21 06:56:00;;;;;;;8.60;5.18;;;;;;;23.26;90.21;99263.03;5070519;28;20671;-64
2023/09/21 06:58:28;;;;;;;11.07;5.50;;;;;;;23.32;92.83;99270.09;5070148;28;20327;-64
2023/09/21 07:00:54;;;;;;;11.10;6.10;;;;;;;23.36;92.19;99262.69;5070206;28;20221;-64
2023/09/21 07:03:21;;;;;;;10.82;5.65;;;;;;;23.34;92.83;99260.28;5070269;28;20199;-66
2023/09/21 07:05:49;;;;;;;8.32;5.63;;;;;;;23.27;92.38;99259.41;5070104;28;20209;-66
2023/09/21 07:08:16;;;;;;;10.80;5.93;;;;;;;23.24;95.09;99260.63;5069973;28;20199;-63
2023/09/21 07:10:44;;;;;;;11.75;6.18;;;;;;;23.22;93.15;99265.22;5070293;28;20199;-63
2023/09/21 07:13:12;;;;;;;10.40;6.25;;;;;;;23.32;92.69;99261.47;5069834;28;20238;-63
2023/09/21 07:15:41;;;;;;;11.25;6.32;;;;;;;23.45;92.35;99261.59;5070117;28;20209;-63
2023/09/21 07:18:08;;;;;;;14.27;5.90;;;;;;;23.43;92.89;99258.34;5069889;28;20199;-63
2023/09/21 07:20:35;;;;;;;10.75;5.57;;;;;;;23.63;91.71;99267.13;5069728;28;20289;-63
2023/09/21 07:23:03;;;;;;;11.90;5.63;;;;;;;23.76;89.81;99268.22;5069473;28;20587;-64
2023/09/21 07:25:30;;;;;;;10.82;5.07;;;;;;;23.76;89.07;99268.22;5070147;28;20278;-63
2023/09/21 07:27:59;;;;;;;8.30;5.60;;;;;;;23.83;90.57;99263.88;5069782;28;20599;-63
2023/09/21 07:30:26;;;;;;;8.15;4.90;;;;;;;24.10;90.23;99257.78;5069873;28;20199;-63
2023/09/21 07:32:55;;;;;;;16.45;10.30;;;;;;;24.39;88.94;99263.72;5069663;28;20211;-60
2023/09/21 07:35:22;;;;;;;9.00;4.55;;;;;;;24.72;84.29;99268.25;5069741;28;20215;-60
2023/09/21 07:37:49;;;;;;;7.47;4.30;;;;;;;24.80;83.42;99278.53;5069449;28;20203;-62
2023/09/21 07:40:17;;;;;;;8.55;4.43;;;;;;;25.01;83.38;99280.97;5069052;28;20199;-60
2023/09/21 07:42:45;;;;;;;8.23;4.28;;;;;;;25.21;80.65;99288.06;5069665;28;20238;-61
2023/09/21 07:45:13;;;;;;;6.20;4.07;;;;;;;25.44;80.22;99292.91;5069518;28;20206;-60
2023/09/21 07:47:40;;;;;;;5.90;4.05;;;;;;;25.48;77.73;99294.09;5069048;28;20714;-63
2023/09/21 07:50:08;;;;;;;4.78;3.85;;;;;;;25.75;77.47;99298.31;5069138;28;20715;-63
2023/09/21 07:52:36;;;;;;;11.15;3.75;;;;;;;25.93;76.78;99302.94;5068691;28;20199;-64
2023/09/21 07:55:03;;;;;;;5.78;3.47;;;;;;;25.95;72.38;99300.13;5068852;28;20231;-64
2023/09/21 07:57:33;;;;;;;8.88;3.50;;;;;;;26.07;74.67;99298.47;5069187;28;20663;-65
2023/09/21 08:00:00;;;;;;;5.43;3.20;;;;;;;26.00;66.92;99296.88;5068977;28;20233;-64
2023/09/21 08:02:28;;;;;;;6.15;3.47;;;;;;;25.95;72.05;99300.94;5069151;28;20248;-64
2023/09/21 08:04:56;;;;;;;3.92;3.28;;;;;;;26.03;68.30;99301.69;5068924;28;20291;-65
2023/09/21 08:07:26;;;;;;;5.35;2.80;;;;;;;26.17;71.29;99295.41;5068680;28;20691;-63
2023/09/21 08:09:54;;;;;;;4.70;3.47;;;;;;;26.23;70.51;99281.47;5069034;28;20226;-64
2023/09/21 08:12:21;;;;;;;5.25;3.45;;;;;;;26.11;70.80;99289.19;5068663;28;20236;-65
2023/09/21 08:14:48;;;;;;;4.65;3.15;;;;;;;26.13;72.53;99286.38;5068504;28;20226;-64
2023/09/21 08:17:14;;;;;;;6.03;3.40;;;;;;;26.14;71.10;99286.16;5068694;28;20206;-63
2023/09/21 08:19:43;;;;;;;5.15;3.25;;;;;;;26.29;72.34;99285.88;5068606;28;20203;-64
2023/09/21 08:22:10;;;;;;;7.40;3.60;;;;;;;26.35;69.67;99289.50;5068621;28;20602;-63
2023/09/21 08:24:37;;;;;;;6.53;3.25;;;;;;;26.63;74.52;99286.56;5068406;28;20218;-63
2023/09/21 08:27:03;;;;;;;6.57;3.78;;;;;;;26.59;68.14;99280.16;5068519;28;20195;-64
2023/09/21 08:29:30;;;;;;;4.78;3.20;;;;;;;26.69;71.11;99285.72;5068468;28;20698;-64
2023/09/21 08:31:57;;;;;;;7.45;4.25;;;;;;;26.67;67.36;99293.00;5068401;28;20222;-64
2023/09/21 08:34:25;;;;;;;3.88;3.20;;;;;;;26.93;71.89;99275.50;5068486;28;20737;-65
2023/09/21 08:36:53;;;;;;;5.88;3.88;;;;;;;27.00;64.58;99286.75;5068175;28;20206;-64
2023/09/21 08:39:20;;;;;;;5.43;3.17;;;;;;;27.00;69.26;99277.06;5068243;28;20300;-64
2023/09/21 08:41:49;;;;;;;6.80;3.50;;;;;;;26.97;67.46;99282.72;5068168;28;20195;-63
2023/09/21 08:44:17;;;;;;;7.35;3.45;;;;;;;26.85;69.53;99274.75;5068247;28;20249;-64
2023/09/21 08:46:45;;;;;;;6.72;3.22;;;;;;;26.84;67.37;99277.56;5068469;28;20195;-64
2023/09/21 08:49:14;;;;;;;9.65;3.70;;;;;;;26.62;64.28;99284.97;5068121;28;20210;-64
2023/09/21 08:51:42;;;;;;;6.45;3.80;;;;;;;26.71;66.50;99288.97;5068332;28;20199;-64
2023/09/21 08:54:13;;;;;;;5.00;3.38;;;;;;;26.98;67.66;99283.53;5067983;28;20230;-64
2023/09/21 08:56:42;;;;;;;5.75;3.40;;;;;;;26.84;64.80;99278.38;5067861;28;20794;-64
2023/09/21 08:59:10;;;;;;;7.97;3.28;;;;;;;26.84;62.97;99286.22;5068486;28;20203;-64
2023/09/21 09:01:37;;;;;;;4.75;3.15;;;;;;;26.87;62.77;99287.63;5068020;28;20703;-64
2023/09/21 09:04:04;;;;;;;6.80;3.10;;;;;;;26.99;63.91;99285.13;5067165;28;20203;-64
2023/09/21 09:06:31;;;;;;;4.97;2.72;;;;;;;27.03;62.76;99286.34;5068004;28;20727;-64
2023/09/21 09:08:58;;;;;;;4.90;3.08;;;;;;;27.12;65.97;99292.13;5068241;28;20209;-64
2023/09/21 09:11:40;;;;;;;5.57;2.95;;;;;;;27.14;63.45;99282.19;5068252;28;20202;-64
2023/09/21 09:14:13;;;;;;;4.00;2.90;;;;;;;27.22;64.65;99295.88;5067651;28;20754;-64
2023/09/21 09:16:39;;;;;;;6.10;3.13;;;;;;;27.48;65.92;99288.81;5067712;28;20218;-64
2023/09/21 09:19:06;;;;;;;5.68;3.53;;;;;;;27.60;62.09;99294.16;5067632;28;20203;-64
2023/09/21 09:21:33;;;;;;;6.25;3.30;;;;;;;27.87;61.48;99286.88;5067706;28;20587;-64
2023/09/21 09:24:02;;;;;;;5.40;3.20;;;;;;;28.12;66.85;99279.69;5067562;28;20209;-64
2023/09/21 09:26:29;;;;;;;7.88;2.90;;;;;;;27.91;60.89;99282.78;5067818;28;20668;-64
2023/09/21 09:29:05;;;;;;;6.25;3.38;;;;;;;27.89;61.01;99276.91;5067747;28;20209;-64
2023/09/21 09:31:32;;;;;;;4.68;3.40;;;;;;;27.94;65.78;99274.44;5067964;28;20210;-64
2023/09/21 09:34:00;;;;;;;6.53;3.60;;;;;;;27.73;58.38;99276.44;5068055;28;20227;-64
2023/09/21 09:36:28;;;;;;;4.70;3.15;;;;;;;27.69;61.72;99277.91;5067806;28;20199;-64
2023/09/21 09:38:55;;;;;;;3.92;2.95;;;;;;;27.49;59.31;99286.00;5067445;28;20230;-64
2023/09/21 09:41:23;;;;;;;5.68;3.53;;;;;;;27.39;61.88;99279.59;5067463;28;20298;-64
2023/09/21 09:43:51;;;;;;;7.40;3.20;;;;;;;27.35;63.75;99278.44;5067564;28;20210;-64
2023/09/21 09:46:23;;;;;;;5.95;2.95;;;;;;;27.39;66.95;99279.59;5067562;28;20660;-64
2023/09/21 09:48:51;;;;;;;11.65;3.85;;;;;;;27.61;62.25;99278.19;5067738;28;20293;-64
2023/09/21 09:51:26;;;;;;;9.50;3.20;;;;;;;27.87;63.03;99279.00;5067358;28;20743;-64
2023/09/21 09:53:56;;;;;;;5.63;2.95;;;;;;;28.18;62.42;99265.66;5067327;28;20264;-64
2023/09/21 09:56:25;;;;;;;8.70;3.67;;;;;;;28.46;58.93;99269.59;5067441;28;20372;-64
2023/09/21 09:58:54;;;;;;;6.85;3.47;;;;;;;28.74;61.55;99268.19;5067159;28;20215;-63
2023/09/21 10:01:25;;;;;;;5.00;3.42;;;;;;;28.59;57.29;99268.59;5067720;28;20229;-64
2023/09/21 10:03:54;;;;;;;5.65;3.20;;;;;;;28.54;59.60;99271.91;5067322;28;20585;-64
2023/09/21 10:06:22;;;;;;;6.03;3.40;;;;;;;28.64;59.14;99266.91;5067316;28;20215;-63
2023/09/21 10:08:49;;;;;;;6.35;3.50;;;;;;;28.78;60.67;99266.72;5067372;28;20195;-64
2023/09/21 10:11:16;;;;;;;6.10;3.60;;;;;;;28.72;58.88;99262.38;5067573;28;20207;-63
2023/09/21 10:13:51;;;;;;;4.63;3.42;;;;;;;28.77;60.98;99268.56;5067202;28;20221;-64
2023/09/21 10:16:20;;;;;;;4.88;3.30;;;;;;;28.55;56.81;99270.88;5070616;28;20247;-64
2023/09/21 10:18:55;;;;;;;3.80;3.05;;;;;;;28.52;56.50;99263.44;5071156;28;20206;-64
2023/09/21 10:21:23;;;;;;;5.28;3.33;;;;;;;28.51;57.67;99267.09;5071266;28;20252;-64
2023/09/21 10:24:02;;;;;;;5.18;3.17;;;;;;;28.35;59.96;99257.97;5071076;28;20694;-64
2023/09/21 10:26:33;;;;;;;5.13;3.05;;;;;;;28.44;60.28;99261.13;5071119;28;20255;-64
2023/09/21 10:29:03;;;;;;;5.28;3.38;;;;;;;28.59;58.84;99263.34;5070784;28;20191;-64
2023/09/21 10:31:30;;;;;;;4.88;3.17;;;;;;;28.53;59.82;99262.41;5070858;28;20305;-64
2023/09/21 10:34:13;;;;;;;7.10;3.10;;;;;;;28.38;57.48;99262.78;5070500;28;20213;-64
2023/09/21 10:36:51;;;;;;;8.50;3.05;;;;;;;28.46;59.00;99248.56;5070657;28;20260;-64
2023/09/21 10:39:26;;;;;;;5.25;3.22;;;;;;;28.42;57.26;99258.72;5070789;28;20202;-64
2023/09/21 10:42:17;;;;;;;6.07;3.58;;;;;;;28.35;58.64;99241.38;5070426;28;20256;-64
2023/09/21 10:45:02;;;;;;;6.95;3.08;;;;;;;28.43;59.72;99243.75;5070268;28;20206;-64
2023/09/21 10:47:41;;;;;;;5.90;3.20;;;;;;;28.31;60.29;99243.66;5071059;28;20692;-64
2023/09/21 10:50:12;;;;;;;6.45;3.45;;;;;;;28.32;59.04;99241.84;5070390;28;20198;-64
2023/09/21 10:52:41;;;;;;;7.63;3.45;;;;;;;28.42;59.63;99239.50;5070324;28;20589;-64
2023/09/21 10:55:09;;;;;;;4.43;3.33;;;;;;;28.50;57.35;99244.44;5070040;28;20230;-64
2023/09/21 10:57:36;;;;;;;7.70;3.53;;;;;;;28.67;60.30;99234.88;5070311;28;20199;-64
2023/09/21 11:00:07;;;;;;;5.78;3.40;;;;;;;28.90;59.37;99230.69;5070164;28;20205;-64
2023/09/21 11:02:38;;;;;;;4.53;3.33;;;;;;;28.98;56.15;99234.84;5070255;28;20292;-64
2023/09/21 11:05:07;;;;;;;7.07;3.30;;;;;;;29.11;56.27;99230.16;5070325;28;20218;-64
2023/09/21 12:38:46;;;;;;;4.60;2.50;;;;;;;29.20;50.99;99164.00;5068275;28;20279;-64
2023/09/21 12:41:13;;;;;;;7.90;3.17;;;;;;;29.05;54.80;99157.38;5068102;28;20210;-64
2023/09/21 12:43:42;;;;;;;4.35;3.25;;;;;;;29.15;60.15;99156.00;5068036;28;20268;-64
2023/09/21 12:46:09;;;;;;;6.85;3.78;;;;;;;29.17;60.90;99146.03;5068575;28;20660;-64
2023/09/21 12:48:36;;;;;;;6.35;3.58;;;;;;;29.05;60.02;99146.03;5068104;28;20199;-64
2023/09/21 12:51:04;;;;;;;8.50;4.28;;;;;;;28.93;57.09;99153.91;5068295;28;20203;-64
2023/09/21 12:53:31;;;;;;;5.88;3.50;;;;;;;29.01;61.67;99145.69;5068168;28;20234;-64
2023/09/21 12:55:59;;;;;;;4.50;3.42;;;;;;;28.97;59.39;99149.78;5068019;28;20231;-64
2023/09/21 12:58:26;;;;;;;13.88;3.85;;;;;;;28.87;63.24;99149.56;5068150;28;20600;-64
2023/09/21 13:00:53;;;;;;;6.80;3.63;;;;;;;28.86;62.65;99142.72;5067939;28;20203;-64
2023/09/21 13:03:20;;;;;;;4.38;3.47;;;;;;;28.77;64.25;99150.16;5067995;28;20215;-64